Time;durP1;ratioP1;P1;durP2;ratioP2;P2;SDS_P1;SDS_P2;PMS_P1;PMS_P2;Temp;Humidity;BMP_temperature;BMP_pressure;BME280_temperature;BME280_humidity;BME280_pressure;Samples;Min_cycle;Max_cycle;Signal;HPM_P1;HPM_P2
2021/07/17 00:00:35;;;;;;;28.53;25.63;;;17.30;99.90;;;;;;5031561;28;20655;-93
2021/07/17 00:03:05;;;;;;;30.30;25.87;;;17.30;99.90;;;;;;5027460;28;20628;-93
2021/07/17 00:05:32;;;;;;;28.13;25.10;;;17.30;99.90;;;;;;5025374;28;20645;-93
2021/07/17 00:08:01;;;;;;;27.90;25.40;;;17.30;99.90;;;;;;5019003;28;21014;-93
2021/07/17 00:10:37;;;;;;;29.47;26.57;;;17.30;99.90;;;;;;5018126;28;20643;-93
2021/07/17 00:13:04;;;;;;;28.03;25.20;;;17.30;99.90;;;;;;5016700;28;21157;-93
2021/07/17 00:15:30;;;;;;;28.90;25.80;;;17.20;99.90;;;;;;5017674;28;20624;-94
2021/07/17 00:17:58;;;;;;;28.73;25.80;;;17.20;99.90;;;;;;5024399;28;20672;-93
2021/07/17 00:20:25;;;;;;;27.67;24.77;;;17.30;99.90;;;;;;5025611;28;20682;-93
2021/07/17 00:22:59;;;;;;;29.37;26.33;;;17.30;99.90;;;;;;5028018;28;20779;-95
2021/07/17 00:25:27;;;;;;;29.70;26.80;;;17.30;99.90;;;;;;5017621;28;21068;-96
2021/07/17 00:27:57;;;;;;;29.53;26.63;;;17.30;99.90;;;;;;5020995;28;20759;-94
2021/07/17 00:30:24;;;;;;;31.13;28.00;;;17.20;99.90;;;;;;5020913;28;20644;-95
2021/07/17 00:32:54;;;;;;;27.60;24.80;;;17.20;99.90;;;;;;5014881;28;21277;-94
2021/07/17 00:35:21;;;;;;;30.63;27.30;;;17.30;99.90;;;;;;5003539;28;20766;-96
2021/07/17 00:37:48;;;;;;;31.67;28.50;;;17.20;99.90;;;;;;5017766;28;20661;-95
2021/07/17 00:40:20;;;;;;;29.37;26.27;;;17.20;99.90;;;;;;5022305;28;21054;-93
2021/07/17 00:42:49;;;;;;;31.53;27.50;;;17.30;99.90;;;;;;5022032;28;20662;-93
2021/07/17 00:45:18;;;;;;;32.13;27.07;;;17.20;99.90;;;;;;5038018;28;20615;-95
2021/07/17 00:47:45;;;;;;;32.37;29.20;;;17.20;99.90;;;;;;5033589;28;20739;-94
2021/07/17 00:50:16;;;;;;;31.97;28.57;;;17.20;99.90;;;;;;5021960;28;20631;-94
2021/07/17 00:52:44;;;;;;;31.37;28.30;;;17.20;99.90;;;;;;5016335;28;20632;-95
2021/07/17 00:55:15;;;;;;;29.80;26.80;;;17.20;99.90;;;;;;5023314;28;20636;-94
2021/07/17 00:57:47;;;;;;;31.87;28.47;;;17.20;99.90;;;;;;5037593;28;20663;-96
2021/07/17 01:00:20;;;;;;;30.30;27.10;;;17.20;99.90;;;;;;5017771;28;20765;-93
2021/07/17 01:02:50;;;;;;;35.03;27.90;;;17.20;99.90;;;;;;5022003;28;20745;-95
2021/07/17 01:05:26;;;;;;;32.30;28.87;;;17.20;99.90;;;;;;5026768;28;20719;-95
2021/07/17 01:07:53;;;;;;;31.30;28.30;;;17.20;99.90;;;;;;5027531;28;20651;-94
2021/07/17 01:10:31;;;;;;;30.60;27.50;;;17.20;99.90;;;;;;5039403;28;20626;-96
2021/07/17 01:12:58;;;;;;;30.63;27.63;;;17.20;99.90;;;;;;5016578;28;20647;-95
2021/07/17 01:15:27;;;;;;;31.70;28.20;;;17.20;99.90;;;;;;5024606;28;20650;-95
2021/07/17 01:17:57;;;;;;;30.63;27.37;;;17.20;99.90;;;;;;5025697;28;20749;-94
2021/07/17 01:20:26;;;;;;;32.57;29.20;;;17.20;99.90;;;;;;5017687;28;21003;-93
2021/07/17 01:22:57;;;;;;;31.37;27.83;;;17.20;99.90;;;;;;5021932;28;20689;-94
2021/07/17 01:25:27;;;;;;;30.87;27.73;;;17.20;99.90;;;;;;5012604;28;20637;-95
2021/07/17 01:27:57;;;;;;;29.87;26.77;;;17.20;99.90;;;;;;5022223;28;20670;-95
2021/07/17 01:30:26;;;;;;;30.43;27.23;;;17.20;99.90;;;;;;5019471;28;21161;-96
2021/07/17 01:32:54;;;;;;;32.40;28.77;;;17.20;99.90;;;;;;5017726;28;21070;-95
2021/07/17 01:35:21;;;;;;;29.77;26.60;;;17.10;99.90;;;;;;5027776;28;21052;-95
2021/07/17 01:37:48;;;;;;;30.87;27.63;;;17.10;99.90;;;;;;5029978;28;20919;-94
2021/07/17 01:40:21;;;;;;;29.07;26.17;;;17.10;99.90;;;;;;5019895;28;21025;-92
2021/07/17 01:42:50;;;;;;;29.53;26.53;;;17.10;99.90;;;;;;5041049;28;20647;-92
2021/07/17 01:45:25;;;;;;;29.20;26.13;;;17.00;99.90;;;;;;5019575;28;20632;-92
2021/07/17 01:47:53;;;;;;;30.80;27.23;;;17.10;99.90;;;;;;5022752;28;20682;-93
2021/07/17 01:50:21;;;;;;;30.53;27.30;;;17.10;99.90;;;;;;5022479;28;21236;-92
2021/07/17 01:52:51;;;;;;;29.60;26.70;;;17.10;99.90;;;;;;5020129;28;20631;-93
2021/07/17 01:55:22;;;;;;;29.87;26.70;;;17.10;99.90;;;;;;5021323;28;20655;-93
2021/07/17 01:57:51;;;;;;;34.50;27.90;;;17.10;99.90;;;;;;5013819;28;20659;-95
2021/07/17 02:00:19;;;;;;;30.90;27.63;;;17.10;99.90;;;;;;5018004;28;22292;-96
2021/07/17 02:02:47;;;;;;;32.90;28.40;;;17.10;99.90;;;;;;5020329;28;20649;-96
2021/07/17 02:05:23;;;;;;;30.13;27.00;;;17.00;99.90;;;;;;5027815;28;20649;-95
2021/07/17 02:07:51;;;;;;;31.50;27.20;;;17.10;99.90;;;;;;5015041;28;20670;-95
2021/07/17 02:10:22;;;;;;;30.40;27.10;;;17.00;99.90;;;;;;5026769;28;20693;-94
2021/07/17 02:13:00;;;;;;;29.93;26.80;;;17.00;99.90;;;;;;5018025;28;20742;-96
2021/07/17 02:15:29;;;;;;;31.53;28.20;;;17.00;99.90;;;;;;5028497;28;20599;-95
2021/07/17 02:17:58;;;;;;;31.50;28.23;;;17.00;99.90;;;;;;5025290;28;20762;-94
2021/07/17 02:20:25;;;;;;;30.83;27.53;;;17.00;99.90;;;;;;5017656;28;20664;-94
2021/07/17 02:22:52;;;;;;;30.33;27.30;;;17.00;99.90;;;;;;5025663;28;20665;-96
2021/07/17 02:25:21;;;;;;;31.70;28.30;;;17.00;99.90;;;;;;5028347;28;20641;-94
2021/07/17 02:27:48;;;;;;;29.43;26.27;;;17.00;99.90;;;;;;5017020;28;20810;-94
2021/07/17 02:30:17;;;;;;;28.17;25.30;;;17.00;99.90;;;;;;5019689;28;20627;-95
2021/07/17 02:32:44;;;;;;;31.13;28.03;;;17.00;99.90;;;;;;5017436;28;20635;-93
2021/07/17 02:35:22;;;;;;;33.10;29.63;;;17.00;99.90;;;;;;5021998;28;21185;-95
2021/07/17 02:37:49;;;;;;;30.50;27.23;;;16.90;99.90;;;;;;5019729;28;21272;-94
2021/07/17 02:40:18;;;;;;;31.10;27.80;;;16.90;99.90;;;;;;5022899;28;20670;-95
2021/07/17 02:42:46;;;;;;;30.47;27.20;;;16.90;99.90;;;;;;5033763;28;20670;-94
2021/07/17 02:45:15;;;;;;;30.53;27.33;;;16.90;99.90;;;;;;5024802;28;20673;-96
2021/07/17 02:47:42;;;;;;;29.80;27.00;;;16.80;99.90;;;;;;5036650;28;20650;-94
2021/07/17 02:50:10;;;;;;;31.47;28.23;;;16.80;99.90;;;;;;5040484;28;20739;-94
2021/07/17 02:52:37;;;;;;;32.53;29.13;;;16.80;99.90;;;;;;5047607;28;20686;-94
2021/07/17 02:55:05;;;;;;;32.43;29.10;;;16.80;99.90;;;;;;5033471;28;20645;-93
2021/07/17 02:57:32;;;;;;;31.03;28.00;;;16.70;99.90;;;;;;5015054;28;20615;-92
2021/07/17 03:00:02;;;;;;;32.37;29.13;;;16.80;99.90;;;;;;5021444;28;20709;-93
2021/07/17 03:02:29;;;;;;;33.07;29.47;;;16.80;99.90;;;;;;5027213;28;21328;-94
2021/07/17 03:04:59;;;;;;;31.90;28.60;;;16.70;99.90;;;;;;5016972;28;20659;-93
2021/07/17 03:07:26;;;;;;;34.10;30.60;;;16.70;99.90;;;;;;5016152;28;20758;-95
2021/07/17 03:09:53;;;;;;;34.13;27.67;;;16.70;99.90;;;;;;5024520;28;20693;-95
2021/07/17 03:12:20;;;;;;;31.97;28.70;;;16.70;99.90;;;;;;5019196;28;20663;-95
2021/07/17 03:14:48;;;;;;;34.53;31.00;;;16.70;99.90;;;;;;5022310;28;20741;-95
2021/07/17 03:17:16;;;;;;;34.53;29.87;;;16.70;99.90;;;;;;5024290;28;20742;-94
2021/07/17 03:19:43;;;;;;;32.40;29.15;;;16.60;99.90;;;;;;5025245;28;20633;-93
2021/07/17 03:22:11;;;;;;;33.70;29.70;;;16.70;99.90;;;;;;5016885;28;20665;-93
2021/07/17 03:24:37;;;;;;;32.60;29.10;;;16.70;99.90;;;;;;5021522;28;20658;-94
2021/07/17 03:27:10;;;;;;;30.87;27.57;;;16.70;99.90;;;;;;5016310;28;21199;-92
2021/07/17 03:29:37;;;;;;;33.60;29.13;;;16.70;99.90;;;;;;5019434;28;20588;-93
2021/07/17 03:32:05;;;;;;;33.10;29.60;;;16.70;99.90;;;;;;5018461;28;20628;-92
2021/07/17 03:34:33;;;;;;;32.53;29.37;;;16.60;99.90;;;;;;5018242;28;20976;-93
2021/07/17 03:37:00;;;;;;;35.10;31.50;;;16.70;99.90;;;;;;5023837;28;20663;-93
2021/07/17 03:39:27;;;;;;;35.00;31.20;;;16.70;99.90;;;;;;5027077;28;20960;-93
2021/07/17 03:41:54;;;;;;;33.13;29.53;;;16.60;99.90;;;;;;5018548;28;21028;-92
2021/07/17 03:44:24;;;;;;;34.10;30.67;;;16.60;99.90;;;;;;5028468;28;20651;-94
2021/07/17 03:46:52;;;;;;;33.07;29.60;;;16.60;99.90;;;;;;5013883;28;20749;-93
2021/07/17 03:49:21;;;;;;;32.13;28.57;;;16.60;99.90;;;;;;5017023;28;20641;-94
2021/07/17 03:51:50;;;;;;;33.00;28.20;;;16.60;99.90;;;;;;5013381;28;20626;-93
2021/07/17 03:54:17;;;;;;;33.20;29.10;;;16.50;99.90;;;;;;5020675;28;20713;-93
2021/07/17 03:56:45;;;;;;;31.37;28.27;;;16.60;99.90;;;;;;5017946;28;20673;-93
2021/07/17 03:59:12;;;;;;;31.80;28.40;;;16.60;99.90;;;;;;5018449;28;20659;-94
2021/07/17 04:01:40;;;;;;;30.30;27.37;;;16.70;99.90;;;;;;5014297;28;20669;-93
2021/07/17 04:04:11;;;;;;;31.70;28.53;;;16.60;99.90;;;;;;5013479;28;20632;-93
2021/07/17 04:06:38;;;;;;;31.37;28.30;;;16.60;99.90;;;;;;5016405;28;20669;-94
2021/07/17 04:09:09;;;;;;;28.43;25.63;;;16.60;99.90;;;;;;5019351;28;20714;-93
2021/07/17 04:11:36;;;;;;;30.17;27.23;;;16.60;99.90;;;;;;5017218;28;20637;-94
2021/07/17 04:14:03;;;;;;;28.33;25.67;;;16.70;99.90;;;;;;5014868;28;20672;-94
2021/07/17 04:16:30;;;;;;;31.37;27.70;;;16.70;99.90;;;;;;5016861;28;20681;-93
2021/07/17 04:18:57;;;;;;;28.70;25.17;;;16.70;99.90;;;;;;5015333;28;21238;-93
2021/07/17 04:21:24;;;;;;;29.73;26.73;;;16.70;99.90;;;;;;5014441;28;21240;-92
2021/07/17 04:23:51;;;;;;;28.90;26.00;;;16.70;99.90;;;;;;5021265;28;20627;-93
2021/07/17 04:26:20;;;;;;;29.70;25.90;;;16.70;99.90;;;;;;5024714;28;20619;-93
2021/07/17 04:28:47;;;;;;;29.33;26.50;;;16.70;99.90;;;;;;5028598;28;20804;-92
2021/07/17 04:31:14;;;;;;;30.83;27.63;;;16.70;99.90;;;;;;5022228;28;21174;-92
2021/07/17 04:33:46;;;;;;;31.80;28.53;;;16.70;99.90;;;;;;5024853;28;20627;-92
2021/07/17 04:36:13;;;;;;;30.80;27.33;;;16.70;99.90;;;;;;5015829;28;20635;-95
2021/07/17 04:38:40;;;;;;;29.73;26.73;;;16.70;99.90;;;;;;5026278;28;20670;-95
2021/07/17 04:41:11;;;;;;;29.37;26.33;;;16.80;99.90;;;;;;5012780;28;21302;-95
2021/07/17 04:43:42;;;;;;;30.93;27.77;;;16.80;99.90;;;;;;5012039;28;20624;-95
2021/07/17 04:46:10;;;;;;;34.03;26.47;;;16.80;99.90;;;;;;5015771;28;20639;-94
2021/07/17 04:48:37;;;;;;;27.90;25.03;;;16.80;99.90;;;;;;5021067;28;20647;-94
2021/07/17 04:51:04;;;;;;;29.83;26.87;;;16.70;99.90;;;;;;5026809;28;20667;-94
2021/07/17 04:53:31;;;;;;;30.60;27.50;;;16.70;99.90;;;;;;5045180;28;20635;-93
2021/07/17 04:56:05;;;;;;;31.20;28.03;;;16.80;99.90;;;;;;5041364;28;20631;-93
2021/07/17 04:58:32;;;;;;;30.30;27.30;;;16.80;99.90;;;;;;5034842;28;20651;-94
2021/07/17 05:01:01;;;;;;;31.73;27.70;;;16.80;99.90;;;;;;5032457;28;20728;-94
2021/07/17 05:03:28;;;;;;;28.40;25.40;;;16.80;99.90;;;;;;5038998;28;20623;-94
2021/07/17 05:05:54;;;;;;;29.57;26.67;;;16.80;99.90;;;;;;5023096;28;20690;-93
2021/07/17 05:08:21;;;;;;;32.93;29.30;;;16.80;99.90;;;;;;5020532;28;21271;-94
2021/07/17 05:10:49;;;;;;;33.50;27.30;;;16.80;99.90;;;;;;5017567;28;20685;-93
2021/07/17 05:13:19;;;;;;;29.40;26.37;;;16.90;99.90;;;;;;5020061;28;20674;-93
2021/07/17 05:15:46;;;;;;;31.17;28.17;;;16.80;99.90;;;;;;5016914;28;20638;-94
2021/07/17 05:18:15;;;;;;;32.40;28.50;;;16.90;99.90;;;;;;5014891;28;20671;-93
2021/07/17 05:20:43;;;;;;;28.30;25.17;;;16.90;99.90;;;;;;5019998;28;20686;-92
2021/07/17 05:23:11;;;;;;;32.70;29.20;;;16.90;99.90;;;;;;5017338;28;20644;-92
2021/07/17 05:25:39;;;;;;;30.97;27.77;;;16.90;99.90;;;;;;5011796;28;20972;-91
2021/07/17 05:28:06;;;;;;;32.83;29.67;;;16.90;99.90;;;;;;5016978;28;21162;-93
2021/07/17 05:30:34;;;;;;;30.47;26.57;;;16.90;99.90;;;;;;5018212;28;20642;-93
2021/07/17 05:33:02;;;;;;;31.80;28.60;;;16.90;99.90;;;;;;5021474;28;21005;-94
2021/07/17 05:35:30;;;;;;;32.00;28.80;;;16.90;99.90;;;;;;5022683;28;20622;-92
2021/07/17 05:37:57;;;;;;;29.20;26.37;;;17.00;99.90;;;;;;5014603;28;21086;-94
2021/07/17 05:40:25;;;;;;;31.30;28.03;;;17.10;99.90;;;;;;5011909;28;20616;-93
2021/07/17 05:42:52;;;;;;;30.20;27.00;;;17.00;99.90;;;;;;5016541;28;20655;-92
2021/07/17 05:45:19;;;;;;;29.67;26.97;;;17.10;99.90;;;;;;5017270;28;20627;-90
2021/07/17 05:47:45;;;;;;;28.97;25.87;;;17.10;99.90;;;;;;5007842;28;20674;-90
2021/07/17 05:50:13;;;;;;;29.33;26.63;;;17.10;99.90;;;;;;5015397;28;20636;-91
2021/07/17 05:52:42;;;;;;;30.07;27.10;;;17.10;99.90;;;;;;5014684;28;20626;-90
2021/07/17 05:55:09;;;;;;;30.23;27.43;;;17.10;99.90;;;;;;5013962;28;20962;-91
2021/07/17 05:57:36;;;;;;;29.63;26.60;;;17.20;99.90;;;;;;5013503;28;20634;-92
2021/07/17 06:00:04;;;;;;;28.57;25.77;;;17.20;99.90;;;;;;5009041;28;21016;-93
2021/07/17 06:02:31;;;;;;;28.33;25.63;;;17.30;99.90;;;;;;5013476;28;20661;-93
2021/07/17 06:04:58;;;;;;;29.40;26.40;;;17.30;99.90;;;;;;5016795;28;20639;-96
2021/07/17 06:07:25;;;;;;;28.40;25.60;;;17.30;99.90;;;;;;5017269;28;20988;-96
2021/07/17 06:09:59;;;;;;;29.43;26.70;;;17.30;99.90;;;;;;5018625;28;20699;-95
2021/07/17 06:12:35;;;;;;;28.97;26.07;;;17.30;99.90;;;;;;5024959;28;20642;-96
2021/07/17 06:15:02;;;;;;;30.13;27.07;;;17.30;99.90;;;;;;5008194;28;20642;-94
2021/07/17 06:17:29;;;;;;;28.37;25.57;;;17.30;99.90;;;;;;5020638;28;20635;-96
2021/07/17 06:19:56;;;;;;;29.57;26.47;;;17.30;99.90;;;;;;5016949;28;20712;-94
2021/07/17 06:22:23;;;;;;;21.63;19.40;;;17.40;99.90;;;;;;5014907;28;20665;-95
2021/07/17 06:24:49;;;;;;;27.00;24.20;;;17.40;99.90;;;;;;5017344;28;20624;-93
2021/07/17 06:27:18;;;;;;;20.37;18.37;;;17.60;99.90;;;;;;5014516;28;20994;-95
2021/07/17 06:29:45;;;;;;;22.83;20.30;;;17.70;99.90;;;;;;5005011;28;20665;-96
2021/07/17 06:32:12;;;;;;;23.93;21.53;;;17.80;99.90;;;;;;5016178;28;20635;-95
2021/07/17 06:34:39;;;;;;;22.90;20.80;;;17.90;99.90;;;;;;5020455;28;20628;-96
2021/07/17 06:37:10;;;;;;;27.00;24.30;;;17.90;99.90;;;;;;5019710;28;20632;-95
2021/07/17 06:39:38;;;;;;;22.17;20.03;;;17.90;99.90;;;;;;5027783;28;20667;-96
2021/07/17 06:42:05;;;;;;;20.23;16.70;;;18.10;99.90;;;;;;5015448;28;20763;-96
2021/07/17 06:44:33;;;;;;;23.93;15.80;;;18.20;99.90;;;;;;5012366;28;20642;-94
2021/07/17 06:47:00;;;;;;;21.50;16.80;;;18.10;99.90;;;;;;5010368;28;21022;-93
2021/07/17 06:49:28;;;;;;;18.70;16.80;;;18.10;99.90;;;;;;5006807;28;20699;-94
2021/07/17 06:51:55;;;;;;;24.07;21.73;;;18.00;99.90;;;;;;5009108;28;20643;-93
2021/07/17 06:54:21;;;;;;;23.60;20.87;;;18.10;99.90;;;;;;5008966;28;20628;-93
2021/07/17 06:56:48;;;;;;;20.70;18.23;;;18.10;99.90;;;;;;5006615;28;20949;-91
2021/07/17 06:59:15;;;;;;;25.27;19.13;;;18.10;99.90;;;;;;5007921;28;20658;-91
2021/07/17 07:01:43;;;;;;;21.97;17.73;;;18.10;99.90;;;;;;5014113;28;20659;-91
2021/07/17 07:04:10;;;;;;;21.37;18.13;;;18.20;99.90;;;;;;5010097;28;20627;-91
2021/07/17 07:06:37;;;;;;;18.20;16.30;;;18.20;99.90;;;;;;5009248;28;20710;-91
2021/07/17 07:09:04;;;;;;;19.97;16.10;;;18.10;99.90;;;;;;5015113;28;20978;-91
2021/07/17 07:11:31;;;;;;;20.43;18.07;;;18.10;99.90;;;;;;5016951;28;20634;-91
2021/07/17 07:13:58;;;;;;;21.07;18.17;;;18.20;99.90;;;;;;5009301;28;20612;-91
2021/07/17 07:16:24;;;;;;;19.97;17.80;;;18.20;99.90;;;;;;5014414;28;20684;-90
2021/07/17 07:18:52;;;;;;;20.37;18.07;;;18.10;99.90;;;;;;5023113;28;20643;-91
2021/07/17 07:21:19;;;;;;;21.10;17.13;;;18.10;99.90;;;;;;5033685;28;20651;-90
2021/07/17 07:23:47;;;;;;;21.50;17.43;;;18.20;99.90;;;;;;5021841;28;20626;-90
2021/07/17 07:26:14;;;;;;;20.17;17.03;;;18.30;99.90;;;;;;5008180;28;21047;-91
2021/07/17 07:28:41;;;;;;;19.50;17.13;;;18.30;99.90;;;;;;5013208;28;20655;-93
2021/07/17 07:31:08;;;;;;;21.10;17.90;;;18.30;99.90;;;;;;5011215;28;20648;-92
2021/07/17 07:33:35;;;;;;;22.03;19.77;;;18.30;99.90;;;;;;5014695;28;21029;-92
2021/07/17 07:36:05;;;;;;;25.80;19.53;;;18.30;99.90;;;;;;5010882;28;20658;-92
2021/07/17 07:38:31;;;;;;;21.07;17.13;;;18.40;99.90;;;;;;5023861;28;20757;-95
2021/07/17 07:40:58;;;;;;;22.57;17.83;;;18.50;99.90;;;;;;5016642;28;20734;-94
2021/07/17 07:43:25;;;;;;;21.10;17.20;;;18.40;99.90;;;;;;5011764;28;20662;-94
2021/07/17 07:45:53;;;;;;;20.23;16.83;;;18.40;99.90;;;;;;5015126;28;20642;-93
2021/07/17 07:48:20;;;;;;;25.43;22.80;;;18.30;99.90;;;;;;5017710;28;20684;-94
2021/07/17 07:50:47;;;;;;;20.60;16.07;;;18.40;99.90;;;;;;5014563;28;20635;-94
2021/07/17 07:53:15;;;;;;;19.73;17.13;;;18.30;99.90;;;;;;5013518;28;21202;-93
2021/07/17 07:55:42;;;;;;;19.37;17.03;;;18.50;99.90;;;;;;5014443;28;20673;-92
2021/07/17 07:58:09;;;;;;;19.17;17.10;;;18.60;99.90;;;;;;5015092;28;20686;-93
2021/07/17 08:00:36;;;;;;;22.43;20.43;;;18.70;99.90;;;;;;5016849;28;21157;-93
2021/07/17 08:03:02;;;;;;;19.47;17.40;;;18.70;99.90;;;;;;5011990;28;21256;-92
2021/07/17 08:05:30;;;;;;;20.73;18.60;;;18.60;99.90;;;;;;5015611;28;20646;-93
2021/07/17 08:07:56;;;;;;;23.87;21.30;;;18.50;99.90;;;;;;5009361;28;21300;-93
2021/07/17 08:10:25;;;;;;;19.93;17.13;;;18.50;99.90;;;;;;5001015;28;21178;-91
2021/07/17 08:12:52;;;;;;;21.60;15.83;;;18.60;99.90;;;;;;5011470;28;20654;-92
2021/07/17 08:15:19;;;;;;;23.20;16.70;;;18.40;99.90;;;;;;5014092;28;20634;-92
2021/07/17 08:17:46;;;;;;;23.77;17.80;;;18.20;99.90;;;;;;5014851;28;20627;-92
2021/07/17 08:20:13;;;;;;;19.73;17.77;;;18.30;99.90;;;;;;5008010;28;20623;-91
2021/07/17 08:22:42;;;;;;;20.70;18.60;;;18.40;99.90;;;;;;5013059;28;20666;-91
2021/07/17 08:25:10;;;;;;;26.50;18.70;;;18.50;99.90;;;;;;5019423;28;21211;-91
2021/07/17 08:27:38;;;;;;;19.30;17.30;;;18.60;99.90;;;;;;5012727;28;20592;-91
2021/07/17 08:30:06;;;;;;;19.67;16.07;;;18.60;99.90;;;;;;5012821;28;20632;-93
2021/07/17 08:32:33;;;;;;;22.57;18.07;;;18.60;99.90;;;;;;5010893;28;20627;-90
2021/07/17 08:35:01;;;;;;;16.47;14.73;;;18.70;99.90;;;;;;5009808;28;20642;-91
2021/07/17 08:37:28;;;;;;;20.77;17.27;;;18.70;99.90;;;;;;5015038;28;20627;-91
2021/07/17 08:39:55;;;;;;;21.03;18.90;;;18.80;99.90;;;;;;5011240;28;20641;-91
2021/07/17 08:42:25;;;;;;;22.23;18.77;;;18.90;99.90;;;;;;5015239;28;20701;-91
2021/07/17 08:44:56;;;;;;;23.07;20.53;;;18.90;99.90;;;;;;5013297;28;21174;-91
2021/07/17 08:47:29;;;;;;;22.07;18.60;;;19.00;99.90;;;;;;5018478;28;20626;-92
2021/07/17 08:49:58;;;;;;;24.13;19.17;;;19.00;99.90;;;;;;5012965;28;20624;-92
2021/07/17 08:52:28;;;;;;;28.27;21.20;;;18.70;99.90;;;;;;5014182;28;20668;-91
2021/07/17 08:55:03;;;;;;;20.50;17.70;;;18.60;99.90;;;;;;5014508;28;21240;-92
2021/07/17 08:57:31;;;;;;;21.33;16.87;;;18.60;99.90;;;;;;5013035;28;20645;-92
2021/07/17 09:00:05;;;;;;;24.13;18.17;;;18.60;99.90;;;;;;5013536;28;20713;-92
2021/07/17 09:02:37;;;;;;;18.90;17.00;;;18.80;99.90;;;;;;5013115;28;21235;-91
2021/07/17 09:05:06;;;;;;;21.00;17.23;;;18.90;99.90;;;;;;5008061;28;20709;-91
2021/07/17 09:07:33;;;;;;;20.40;16.17;;;19.10;99.90;;;;;;5020725;28;20623;-90
2021/07/17 09:10:00;;;;;;;21.27;19.33;;;19.30;99.90;;;;;;5011878;28;20718;-92
2021/07/17 09:12:27;;;;;;;18.40;16.60;;;19.40;99.90;;;;;;5022499;28;20665;-92
2021/07/17 09:14:54;;;;;;;17.93;15.90;;;19.60;99.90;;;;;;5010458;28;20982;-91
2021/07/17 09:17:28;;;;;;;18.90;16.20;;;19.40;99.90;;;;;;5013848;28;20750;-91
2021/07/17 09:19:57;;;;;;;20.70;17.80;;;19.40;99.90;;;;;;5010889;28;20682;-92
2021/07/17 09:22:34;;;;;;;18.67;16.40;;;19.50;99.90;;;;;;5011278;28;21054;-90
2021/07/17 09:25:09;;;;;;;22.43;17.60;;;19.50;99.90;;;;;;5014054;28;20666;-91
2021/07/17 09:27:36;;;;;;;17.77;15.97;;;19.20;99.90;;;;;;5007651;28;20707;-92
2021/07/17 09:30:03;;;;;;;19.10;15.37;;;19.20;99.90;;;;;;5016021;28;20693;-91
2021/07/17 09:32:32;;;;;;;22.30;18.10;;;19.20;99.90;;;;;;5025127;28;20622;-92
2021/07/17 09:35:12;;;;;;;28.23;17.10;;;19.20;99.90;;;;;;5035132;28;20612;-92
2021/07/17 09:37:39;;;;;;;21.30;16.97;;;19.40;99.90;;;;;;5033394;28;20622;-93
2021/07/17 09:40:11;;;;;;;21.43;19.00;;;19.40;99.90;;;;;;5013758;28;20759;-93
2021/07/17 09:42:44;;;;;;;20.03;17.90;;;19.30;99.90;;;;;;5015081;28;20658;-92
2021/07/17 09:45:12;;;;;;;22.57;20.27;;;19.20;99.90;;;;;;5018131;28;20580;-92
2021/07/17 09:47:40;;;;;;;18.60;16.70;;;19.20;99.90;;;;;;5019925;28;21319;-92
2021/07/17 09:50:14;;;;;;;20.37;15.33;;;19.20;99.90;;;;;;5013287;28;21000;-92
2021/07/17 09:52:42;;;;;;;20.00;16.07;;;19.30;99.90;;;;;;5010554;28;20658;-92
2021/07/17 09:55:11;;;;;;;18.83;16.20;;;19.20;99.90;;;;;;5015157;28;21210;-92
2021/07/17 09:57:38;;;;;;;19.73;15.90;;;19.20;99.90;;;;;;5008115;28;20635;-92
2021/07/17 10:00:08;;;;;;;21.23;17.13;;;19.20;99.90;;;;;;5014939;28;20735;-91
2021/07/17 10:02:36;;;;;;;18.80;17.00;;;19.20;99.90;;;;;;5008447;28;20663;-92
2021/07/17 10:05:04;;;;;;;22.43;16.60;;;19.20;99.90;;;;;;5010270;28;21234;-91
2021/07/17 10:07:31;;;;;;;17.40;15.70;;;19.30;99.90;;;;;;5017820;28;20616;-91
2021/07/17 10:09:59;;;;;;;17.27;15.50;;;19.30;99.90;;;;;;5013884;28;20611;-91
2021/07/17 10:12:33;;;;;;;19.53;17.53;;;19.30;99.90;;;;;;5007465;28;21169;-91
2021/07/17 10:15:01;;;;;;;23.30;16.50;;;19.70;99.90;;;;;;5015052;28;20674;-91
2021/07/17 10:17:34;;;;;;;16.77;15.00;;;19.80;99.90;;;;;;5007618;28;20650;-92
2021/07/17 10:20:02;;;;;;;21.47;16.00;;;20.20;99.90;;;;;;5010038;28;20633;-93
2021/07/17 10:22:30;;;;;;;21.20;16.40;;;20.40;99.90;;;;;;5009594;28;20667;-92
2021/07/17 10:24:58;;;;;;;19.93;17.10;;;20.80;99.90;;;;;;5009771;28;20662;-93
2021/07/17 10:27:25;;;;;;;19.07;15.07;;;21.20;99.90;;;;;;5008398;28;20706;-92
2021/07/17 10:29:52;;;;;;;19.83;17.83;;;21.30;99.90;;;;;;5013912;28;20615;-91
2021/07/17 10:32:19;;;;;;;19.43;16.50;;;21.20;99.90;;;;;;5012183;28;20714;-92
2021/07/17 10:34:46;;;;;;;17.90;16.27;;;21.10;99.90;;;;;;5011691;28;20622;-91
2021/07/17 10:37:16;;;;;;;19.30;17.20;;;21.00;99.90;;;;;;5013780;28;20667;-92
2021/07/17 10:39:50;;;;;;;18.43;16.40;;;21.20;99.90;;;;;;5013860;28;20599;-92
2021/07/17 10:42:20;;;;;;;17.27;15.47;;;21.30;99.90;;;;;;5020148;28;21017;-91
2021/07/17 10:44:49;;;;;;;17.47;15.23;;;21.40;99.90;;;;;;5008993;28;20630;-92
2021/07/17 10:47:17;;;;;;;18.30;16.60;;;21.20;99.90;;;;;;5011046;28;20653;-91
2021/07/17 10:49:46;;;;;;;17.43;15.83;;;21.50;99.90;;;;;;5014782;28;20632;-92
2021/07/17 10:52:13;;;;;;;19.03;16.93;;;21.40;99.90;;;;;;5019352;28;20636;-91
2021/07/17 10:54:40;;;;;;;17.13;15.33;;;21.60;99.90;;;;;;5015274;28;20622;-92
2021/07/17 10:57:09;;;;;;;16.50;15.00;;;21.80;99.90;;;;;;5024028;28;20705;-91
2021/07/17 10:59:41;;;;;;;18.30;14.97;;;21.80;99.90;;;;;;5014551;28;20626;-92
2021/07/17 11:02:09;;;;;;;17.87;15.43;;;21.60;99.90;;;;;;5016460;28;20642;-90
2021/07/17 11:04:41;;;;;;;17.17;15.40;;;21.50;99.90;;;;;;5020098;28;20622;-91
2021/07/17 11:07:38;;;;;;;16.63;14.47;;;21.60;99.90;;;;;;5026979;28;20661;-91
2021/07/17 11:10:14;;;;;;;26.53;15.73;;;21.70;99.90;;;;;;5029513;28;20611;-91
2021/07/17 11:13:03;;;;;;;20.23;18.37;;;21.60;99.90;;;;;;5031996;28;20685;-91
2021/07/17 11:15:48;;;;;;;20.50;18.43;;;21.40;99.90;;;;;;5032856;28;20635;-91
2021/07/17 11:18:28;;;;;;;18.83;16.17;;;21.20;99.90;;;;;;5034830;28;20572;-91
2021/07/17 11:20:59;;;;;;;22.07;17.70;;;21.40;99.90;;;;;;5037234;28;20623;-91
2021/07/17 11:23:36;;;;;;;19.10;15.40;;;21.30;99.90;;;;;;5039078;28;20766;-92
2021/07/17 11:26:06;;;;;;;18.40;16.60;;;21.40;99.90;;;;;;5039076;28;20654;-93
2021/07/17 11:29:08;;;;;;;20.30;16.30;;;21.40;99.90;;;;;;5035228;28;21001;-91
2021/07/17 11:31:54;;;;;;;18.33;16.37;;;21.50;99.90;;;;;;5035993;28;20642;-91
2021/07/17 11:34:47;;;;;;;24.60;16.70;;;21.50;99.90;;;;;;5039457;28;20726;-92
2021/07/17 11:37:28;;;;;;;18.37;16.47;;;21.60;99.90;;;;;;5037118;28;20658;-91
2021/07/17 11:39:58;;;;;;;19.50;15.70;;;21.70;99.90;;;;;;5037603;28;20695;-91
2021/07/17 11:42:25;;;;;;;16.40;14.80;;;21.80;99.90;;;;;;5031970;28;20615;-91
2021/07/17 11:44:55;;;;;;;18.63;15.60;;;21.70;99.90;;;;;;5034137;28;20647;-92
2021/07/17 11:47:24;;;;;;;17.27;15.77;;;21.70;99.90;;;;;;5040087;28;20602;-92
2021/07/17 11:49:53;;;;;;;16.13;14.73;;;21.70;99.90;;;;;;5033704;28;20723;-92
2021/07/17 11:52:25;;;;;;;19.70;15.70;;;21.70;99.90;;;;;;5038920;28;20658;-92
2021/07/17 11:54:55;;;;;;;17.70;16.00;;;21.70;99.90;;;;;;5043473;28;20651;-92
2021/07/17 11:57:24;;;;;;;16.60;15.17;;;21.60;99.90;;;;;;5037851;28;20626;-91
2021/07/17 12:00:07;;;;;;;17.20;15.43;;;21.50;99.90;;;;;;5034971;28;20750;-92
2021/07/17 12:02:35;;;;;;;17.63;15.20;;;21.40;99.90;;;;;;5036109;28;20620;-92
2021/07/17 12:05:10;;;;;;;18.87;16.87;;;21.40;99.90;;;;;;5029515;28;20624;-92
2021/07/17 12:07:39;;;;;;;17.67;14.97;;;21.50;99.90;;;;;;5029143;28;20596;-93
2021/07/17 12:10:08;;;;;;;16.27;14.67;;;21.50;99.90;;;;;;5037296;28;20653;-92
2021/07/17 12:12:39;;;;;;;16.83;14.10;;;21.40;99.90;;;;;;5031200;28;20686;-91
2021/07/17 12:15:14;;;;;;;18.80;16.60;;;21.50;99.90;;;;;;5035197;28;20635;-91
2021/07/17 12:17:49;;;;;;;17.27;15.60;;;21.60;99.90;;;;;;5035179;28;20614;-92
2021/07/17 12:20:18;;;;;;;15.30;13.80;;;21.70;99.90;;;;;;5041213;28;20701;-92
2021/07/17 12:22:48;;;;;;;17.50;15.00;;;21.80;99.90;;;;;;5039842;28;20603;-91
2021/07/17 12:25:17;;;;;;;23.00;16.50;;;21.70;99.90;;;;;;5042311;28;20639;-92
2021/07/17 12:27:53;;;;;;;18.67;14.37;;;21.60;99.90;;;;;;5038552;28;20662;-91
2021/07/17 12:30:24;;;;;;;15.70;14.07;;;21.60;99.90;;;;;;5038518;28;20645;-92
2021/07/17 12:32:50;;;;;;;18.40;16.53;;;21.70;99.90;;;;;;5031897;28;20649;-92
2021/07/17 12:35:22;;;;;;;16.90;15.30;;;21.60;99.90;;;;;;5034421;28;20731;-92
2021/07/17 12:37:49;;;;;;;16.57;15.00;;;21.60;99.90;;;;;;5031976;28;20638;-92